createdAt,value
2022-11-20T00:01:26.095Z,10.43
2022-11-20T00:03:54.639Z,9.55
2022-11-20T00:06:22.741Z,10.10
2022-11-20T00:08:49.922Z,8.77
2022-11-20T00:11:21.315Z,9.10
2022-11-20T00:13:50.663Z,9.32
2022-11-20T00:16:19.991Z,8.60
2022-11-20T00:18:47.041Z,8.63
2022-11-20T00:21:16.446Z,9.48
2022-11-20T00:23:43.837Z,11.80
2022-11-20T00:26:13.519Z,8.75
2022-11-20T00:28:40.807Z,8.90
2022-11-20T00:31:13.060Z,8.50
2022-11-20T00:33:40.895Z,9.15
2022-11-20T00:36:10.542Z,8.52
2022-11-20T00:38:38.105Z,7.82
2022-11-20T00:41:08.163Z,8.55
2022-11-20T00:43:36.084Z,8.25
2022-11-20T00:46:06.257Z,9.32
2022-11-20T00:48:33.764Z,9.38
2022-11-20T00:51:00.902Z,8.57
2022-11-20T00:53:28.734Z,8.88
2022-11-20T00:56:00.863Z,8.70
2022-11-20T00:58:32.532Z,9.07
2022-11-20T01:01:14.700Z,8.57
2022-11-20T01:03:47.417Z,8.20
2022-11-20T01:06:20.158Z,9.18
2022-11-20T01:08:48.162Z,9.25
2022-11-20T01:11:17.667Z,9.25
2022-11-20T01:13:46.652Z,8.70
2022-11-20T01:16:20.781Z,8.35
2022-11-20T01:18:50.102Z,8.88
2022-11-20T01:21:22.784Z,8.88
2022-11-20T01:23:50.655Z,8.38
2022-11-20T01:26:20.876Z,8.45
2022-11-20T01:28:48.775Z,8.27
2022-11-20T01:31:30.817Z,9.13
2022-11-20T01:34:00.336Z,9.05
2022-11-20T01:36:29.438Z,8.27
2022-11-20T01:38:58.248Z,7.75
2022-11-20T01:41:47.626Z,8.75
2022-11-20T01:44:21.151Z,8.65
2022-11-20T01:47:03.045Z,8.75
2022-11-20T01:49:38.051Z,8.60
2022-11-20T01:52:14.098Z,9.32
2022-11-20T01:54:47.101Z,10.00
2022-11-20T01:57:16.659Z,9.30
2022-11-20T01:59:49.236Z,9.02
2022-11-20T02:02:16.331Z,9.57
2022-11-20T02:04:43.500Z,10.50
2022-11-20T02:07:10.865Z,9.20
2022-11-20T02:09:37.879Z,10.88
2022-11-20T02:12:05.749Z,10.60
2022-11-20T02:14:32.900Z,9.38
2022-11-20T02:16:59.848Z,9.77
2022-11-20T02:19:32.944Z,9.57
2022-11-20T02:22:08.851Z,10.32
2022-11-20T02:24:36.056Z,18.05
2022-11-20T02:27:11.997Z,13.18
2022-11-20T02:30:01.272Z,9.48
2022-11-20T02:32:34.116Z,9.77
2022-11-20T02:35:32.000Z,10.38
2022-11-20T02:38:02.237Z,10.55
2022-11-20T02:40:29.818Z,9.98
2022-11-20T02:42:57.687Z,10.27
2022-11-20T02:45:25.221Z,10.07
2022-11-20T02:47:53.136Z,10.55
2022-11-20T02:50:20.344Z,10.85
2022-11-20T02:52:47.267Z,9.73
2022-11-20T02:55:14.249Z,11.13
2022-11-20T02:57:41.499Z,11.02
2022-11-20T03:00:09.020Z,11.98
2022-11-20T03:02:36.068Z,10.95
2022-11-20T03:05:03.046Z,10.18
2022-11-20T03:07:30.153Z,10.52
2022-11-20T03:09:57.087Z,10.57
2022-11-20T03:12:24.184Z,10.23
2022-11-20T03:14:53.296Z,10.27
2022-11-20T03:17:20.549Z,10.88
2022-11-20T03:19:47.544Z,10.50
2022-11-20T03:22:14.684Z,10.35
2022-11-20T03:24:41.645Z,11.15
2022-11-20T03:27:08.653Z,10.23
2022-11-20T03:29:37.368Z,10.52
2022-11-20T03:32:04.250Z,11.25
2022-11-20T03:34:31.214Z,11.23
2022-11-20T03:36:58.162Z,11.40
2022-11-20T03:39:25.152Z,10.98
2022-11-20T03:41:52.052Z,11.38
2022-11-20T03:44:23.030Z,11.23
2022-11-20T03:46:49.958Z,11.27
2022-11-20T03:49:16.929Z,11.65
2022-11-20T03:51:43.802Z,10.65
2022-11-20T03:54:10.892Z,10.48
2022-11-20T03:56:40.342Z,11.20
2022-11-20T03:59:07.826Z,10.88
2022-11-20T04:01:37.980Z,10.60
2022-11-20T04:04:05.011Z,11.18
2022-11-20T04:06:36.937Z,11.13
2022-11-20T04:09:04.126Z,11.10
2022-11-20T04:11:33.627Z,11.20
2022-11-20T04:14:03.014Z,11.75
2022-11-20T04:16:35.999Z,11.50
2022-11-20T04:19:06.648Z,11.05
2022-11-20T04:21:33.785Z,10.68
2022-11-20T04:24:00.740Z,11.20
2022-11-20T04:26:29.124Z,11.27
2022-11-20T04:28:56.182Z,12.32
2022-11-20T04:31:26.377Z,11.57
2022-11-20T04:33:53.917Z,12.63
2022-11-20T04:36:26.949Z,11.90
2022-11-20T04:38:59.517Z,12.50
2022-11-20T04:41:29.445Z,15.27
2022-11-20T04:44:00.851Z,16.08
2022-11-20T04:46:28.942Z,13.95
2022-11-20T04:48:56.539Z,14.10
2022-11-20T04:51:23.969Z,12.05
2022-11-20T04:53:51.748Z,11.65
2022-11-20T04:56:18.656Z,11.80
2022-11-20T04:58:45.972Z,12.02
2022-11-20T05:01:18.452Z,11.38
2022-11-20T05:03:46.344Z,11.05
2022-11-20T05:06:16.356Z,11.00
2022-11-20T05:08:43.797Z,11.25
2022-11-20T05:11:16.400Z,11.35
2022-11-20T05:13:43.770Z,10.77
2022-11-20T05:16:13.964Z,11.13
2022-11-20T05:18:42.407Z,12.40
2022-11-20T05:21:10.369Z,11.82
2022-11-20T05:23:38.331Z,11.90
2022-11-20T05:26:06.769Z,13.05
2022-11-20T05:28:35.348Z,12.05
2022-11-20T05:31:07.753Z,11.73
2022-11-20T05:33:36.308Z,11.95
2022-11-20T05:36:07.009Z,11.68
2022-11-20T05:38:34.275Z,10.95
2022-11-20T05:41:06.409Z,11.50
2022-11-20T05:43:35.471Z,12.03
2022-11-20T05:46:03.867Z,11.85
2022-11-20T05:48:32.178Z,11.15
2022-11-20T05:51:00.927Z,11.82
2022-11-20T05:53:28.282Z,12.73
2022-11-20T05:56:03.573Z,11.53
2022-11-20T05:58:31.783Z,11.75
2022-11-20T06:01:12.463Z,11.30
2022-11-20T06:03:40.755Z,12.00
2022-11-20T06:06:08.269Z,11.68
2022-11-20T06:08:36.115Z,10.80
2022-11-20T06:11:14.380Z,10.77
2022-11-20T06:13:42.810Z,10.73
2022-11-20T06:16:11.888Z,10.77
2022-11-20T06:18:38.895Z,11.00
2022-11-20T06:21:20.531Z,10.77
2022-11-20T06:23:48.547Z,11.70
2022-11-20T06:26:24.893Z,11.95
2022-11-20T06:28:53.589Z,12.00
2022-11-20T06:31:24.003Z,12.10
2022-11-20T06:33:52.372Z,11.10
2022-11-20T06:36:21.615Z,12.47
2022-11-20T06:38:50.224Z,10.68
2022-11-20T06:41:19.781Z,12.40
2022-11-20T06:43:46.864Z,13.93
2022-11-20T06:46:15.858Z,25.20
2022-11-20T06:48:43.135Z,17.23
2022-11-20T06:51:10.656Z,12.65
2022-11-20T06:53:38.872Z,12.07
2022-11-20T06:56:06.903Z,13.15
2022-11-20T06:58:35.281Z,12.77
2022-11-20T07:01:08.524Z,12.98
2022-11-20T07:03:36.786Z,12.55
2022-11-20T07:06:04.606Z,12.23
2022-11-20T07:08:32.145Z,12.77
2022-11-20T07:11:05.381Z,13.00
2022-11-20T07:13:32.792Z,14.98
2022-11-20T07:16:08.465Z,13.50
2022-11-20T07:18:36.290Z,13.15
2022-11-20T07:21:09.225Z,12.55
2022-11-20T07:23:36.949Z,12.35
2022-11-20T07:26:08.515Z,13.38
2022-11-20T07:28:35.962Z,16.23
2022-11-20T07:31:03.754Z,14.32
2022-11-20T07:33:31.954Z,17.13
2022-11-20T07:36:01.354Z,15.93
2022-11-20T07:38:28.811Z,12.65
2022-11-20T07:40:57.448Z,12.98
2022-11-20T07:43:26.307Z,11.00
2022-11-20T07:45:53.444Z,11.27
2022-11-20T07:48:21.269Z,10.75
2022-11-20T07:50:48.573Z,11.52
2022-11-20T07:53:22.102Z,12.48
2022-11-20T07:55:49.394Z,12.00
2022-11-20T07:58:16.463Z,11.95
2022-11-20T08:00:43.842Z,11.77
2022-11-20T08:03:10.782Z,11.45
2022-11-20T08:05:38.981Z,10.70
2022-11-20T08:08:06.908Z,10.63
2022-11-20T08:10:34.642Z,10.82
2022-11-20T08:13:21.145Z,11.52
2022-11-20T08:15:52.026Z,11.35
2022-11-20T08:18:37.205Z,10.38
2022-11-20T08:21:05.606Z,10.05
2022-11-20T08:23:32.825Z,11.50
2022-11-20T08:26:00.093Z,10.20
2022-11-20T08:28:27.479Z,11.95
2022-11-20T08:31:02.631Z,11.52
2022-11-20T08:33:30.867Z,12.05
2022-11-20T08:36:02.943Z,11.43
2022-11-20T08:38:31.018Z,10.27
2022-11-20T08:41:17.955Z,10.32
2022-11-20T08:43:44.935Z,10.85
2022-11-20T08:46:12.057Z,10.80
2022-11-20T08:48:39.657Z,11.00
2022-11-20T08:51:06.952Z,10.73
2022-11-20T08:53:34.383Z,11.05
2022-11-20T08:56:01.753Z,12.32
2022-11-20T08:58:30.945Z,12.80
2022-11-20T09:00:59.411Z,12.60
2022-11-20T09:03:32.697Z,13.85
2022-11-20T09:06:05.773Z,11.90
2022-11-20T09:08:33.200Z,12.43
2022-11-20T09:11:00.465Z,12.80
2022-11-20T09:13:29.079Z,11.40
2022-11-20T09:15:58.205Z,11.13
2022-11-20T09:18:26.416Z,12.35
2022-11-20T09:20:56.934Z,12.00
2022-11-20T09:23:24.613Z,13.40
2022-11-20T09:25:51.948Z,13.57
2022-11-20T09:28:20.203Z,12.07
2022-11-20T09:30:47.363Z,12.23
2022-11-20T09:33:14.554Z,13.65
2022-11-20T09:35:42.246Z,13.45
2022-11-20T09:38:12.172Z,12.60
2022-11-20T09:40:46.876Z,12.25
2022-11-20T09:43:54.220Z,12.82
2022-11-20T09:46:47.315Z,12.20
2022-11-20T09:49:32.059Z,12.80
2022-11-20T09:52:01.063Z,12.63
2022-11-20T09:54:38.580Z,11.98
2022-11-20T09:57:16.618Z,13.52
2022-11-20T09:59:47.605Z,12.40
2022-11-20T10:02:38.661Z,12.02
2022-11-20T10:05:18.667Z,12.55
2022-11-20T10:08:15.869Z,12.70
2022-11-20T10:13:29.692Z,12.30
2022-11-20T10:16:18.764Z,13.52
2022-11-20T10:19:04.874Z,12.75
2022-11-20T10:21:50.966Z,14.55
2022-11-20T10:24:40.079Z,13.00
2022-11-20T10:27:33.638Z,12.63
2022-11-20T10:30:17.174Z,13.25
2022-11-20T10:32:49.760Z,14.75
2022-11-20T10:35:46.334Z,13.57
2022-11-20T10:38:33.185Z,13.45
2022-11-20T10:41:22.009Z,10.15
2022-11-20T10:43:53.242Z,12.10
2022-11-20T10:46:26.426Z,12.35
2022-11-20T10:48:53.561Z,11.10
2022-11-20T10:51:41.228Z,13.50
2022-11-20T10:54:33.891Z,13.48
2022-11-20T10:57:15.461Z,14.65
2022-11-20T11:00:03.518Z,16.25
2022-11-20T11:02:40.490Z,13.20
2022-11-20T11:05:34.330Z,12.65
2022-11-20T11:08:02.359Z,12.45
2022-11-20T11:10:38.849Z,13.10
2022-11-20T11:13:06.562Z,12.48
2022-11-20T11:15:42.297Z,12.15
2022-11-20T11:18:13.106Z,14.43
2022-11-20T11:20:40.391Z,13.02
2022-11-20T11:23:33.425Z,13.38
2022-11-20T11:26:02.282Z,14.48
2022-11-20T11:28:30.029Z,14.73
2022-11-20T11:30:57.659Z,14.05
2022-11-20T11:33:29.755Z,13.90
2022-11-20T11:36:01.962Z,15.00
2022-11-20T11:38:33.851Z,13.38
2022-11-20T11:41:02.513Z,15.00
2022-11-20T11:43:53.342Z,13.43
2022-11-20T11:46:35.905Z,15.25
2022-11-20T11:49:21.229Z,14.10
2022-11-20T11:52:09.430Z,16.63
2022-11-20T11:54:46.116Z,14.70
2022-11-20T11:57:30.183Z,16.90
2022-11-20T12:00:06.507Z,9.20
2022-11-20T12:05:30.097Z,14.80
2022-11-20T12:08:12.797Z,16.95
2022-11-20T12:10:49.695Z,9.13
2022-11-20T12:13:41.131Z,14.30
2022-11-20T12:16:15.803Z,14.85
2022-11-20T12:18:44.095Z,13.57
2022-11-20T12:21:35.328Z,12.85
2022-11-20T12:24:24.083Z,15.05
2022-11-20T12:27:05.836Z,12.60
2022-11-20T12:29:53.124Z,15.05
2022-11-20T12:32:31.439Z,15.13
2022-11-20T12:35:11.465Z,15.50
2022-11-20T12:38:15.006Z,14.55
2022-11-20T12:41:36.808Z,14.32
2022-11-20T12:44:44.036Z,14.73
2022-11-20T12:50:04.580Z,14.73
2022-11-20T12:52:41.083Z,14.73
2022-11-20T12:55:35.026Z,16.45
2022-11-20T12:58:10.319Z,12.80
2022-11-20T13:00:49.218Z,15.32
2022-11-20T13:03:54.370Z,15.55
2022-11-20T13:06:22.882Z,16.85
2022-11-20T13:08:55.971Z,15.73
2022-11-20T13:11:30.237Z,17.17
2022-11-20T13:14:07.575Z,16.90
2022-11-20T13:16:57.747Z,15.75
2022-11-20T13:19:34.762Z,15.80
2022-11-20T13:22:09.717Z,14.48
2022-11-20T13:24:39.713Z,13.88
2022-11-20T13:27:10.322Z,14.90
2022-11-20T13:29:39.171Z,14.98
2022-11-20T13:32:22.725Z,14.10
2022-11-20T13:35:05.009Z,14.93
2022-11-20T13:37:38.104Z,14.13
2022-11-20T13:40:14.819Z,14.48
2022-11-20T13:42:52.581Z,15.02
2022-11-20T13:45:29.312Z,15.02
2022-11-20T13:47:57.583Z,14.13
2022-11-20T13:50:54.782Z,13.93
2022-11-20T13:59:14.833Z,14.65
2022-11-20T14:01:48.372Z,13.13
2022-11-20T14:04:22.163Z,15.80
2022-11-20T14:06:50.850Z,16.00
2022-11-20T14:09:32.274Z,15.13
2022-11-20T14:12:04.355Z,15.88
2022-11-20T14:14:45.773Z,15.95
2022-11-20T14:17:34.777Z,16.63
2022-11-20T14:20:17.271Z,14.95
2022-11-20T14:22:54.641Z,14.40
2022-11-20T14:25:32.370Z,16.73
2022-11-20T14:28:02.153Z,14.35
2022-11-20T14:30:50.045Z,15.48
2022-11-20T14:33:18.048Z,13.48
2022-11-20T14:35:53.683Z,14.63
2022-11-20T14:38:29.051Z,17.02
2022-11-20T14:41:11.296Z,14.38
2022-11-20T14:43:39.163Z,12.50
2022-11-20T14:46:13.071Z,14.77
2022-11-20T14:48:52.630Z,16.02
2022-11-20T14:51:44.066Z,13.80
2022-11-20T14:54:20.417Z,12.45
2022-11-20T14:57:12.891Z,14.07
2022-11-20T14:59:44.212Z,13.82
2022-11-20T15:02:16.584Z,11.20
2022-11-20T15:05:01.189Z,12.10
2022-11-20T15:07:36.937Z,15.00
2022-11-20T15:10:21.414Z,14.97
2022-11-20T15:13:00.837Z,17.10
2022-11-20T15:15:44.968Z,14.50
2022-11-20T15:18:20.450Z,13.77
2022-11-20T15:20:49.877Z,14.20
2022-11-20T15:23:23.366Z,12.93
2022-11-20T15:25:52.226Z,12.98
2022-11-20T15:28:38.473Z,11.32
2022-11-20T15:31:08.497Z,13.02
2022-11-20T15:33:38.872Z,13.38
2022-11-20T15:36:08.321Z,12.27
2022-11-20T15:38:36.100Z,13.27
2022-11-20T15:41:03.829Z,14.02
2022-11-20T15:43:32.946Z,12.88
2022-11-20T15:46:31.042Z,12.25
2022-11-20T15:49:01.108Z,13.32
2022-11-20T15:51:30.170Z,11.15
2022-11-20T15:53:58.642Z,9.52
2022-11-20T15:56:27.040Z,13.65
2022-11-20T15:58:57.916Z,13.10
2022-11-20T16:01:25.492Z,15.75
2022-11-20T16:03:56.351Z,14.05
2022-11-20T16:06:29.598Z,15.68
2022-11-20T16:09:00.277Z,14.60
2022-11-20T16:11:32.866Z,15.90
2022-11-20T16:14:18.956Z,14.95
2022-11-20T16:16:48.024Z,13.95
2022-11-20T16:19:16.897Z,14.32
2022-11-20T16:21:45.574Z,14.52
2022-11-20T16:24:16.005Z,13.18
2022-11-20T16:26:44.482Z,14.25
2022-11-20T16:29:18.279Z,14.27
2022-11-20T16:31:55.344Z,9.90
2022-11-20T16:34:23.177Z,14.27
2022-11-20T16:36:51.969Z,11.05
2022-11-20T16:39:29.332Z,11.98
2022-11-20T16:41:59.098Z,12.70
2022-11-20T16:44:27.050Z,14.18
2022-11-20T16:46:58.453Z,7.88
2022-11-20T16:49:31.519Z,12.05
2022-11-20T16:51:59.054Z,13.85
2022-11-20T16:54:27.433Z,10.43
2022-11-20T16:57:04.694Z,10.68
2022-11-20T16:59:33.184Z,10.80
2022-11-20T17:02:05.039Z,10.95
2022-11-20T17:04:32.623Z,6.97
2022-11-20T17:07:05.029Z,8.98
2022-11-20T17:09:35.360Z,12.67
2022-11-20T17:12:06.524Z,10.52
2022-11-20T17:14:41.924Z,11.57
2022-11-20T17:17:23.037Z,11.63
2022-11-20T17:20:00.777Z,11.77
2022-11-20T17:22:30.148Z,12.02
2022-11-20T17:24:58.119Z,8.98
2022-11-20T17:27:25.817Z,9.38
2022-11-20T17:29:55.181Z,8.15
2022-11-20T17:32:23.085Z,11.40
2022-11-20T17:34:51.755Z,11.35
2022-11-20T17:37:20.435Z,11.70
2022-11-20T17:39:52.356Z,12.65
2022-11-20T17:42:38.705Z,12.18
2022-11-20T17:45:06.356Z,13.63
2022-11-20T17:47:37.012Z,10.88
2022-11-20T17:50:05.707Z,13.48
2022-11-20T17:52:38.796Z,11.18
2022-11-20T17:55:11.903Z,12.40
2022-11-20T17:57:59.481Z,10.52
2022-11-20T18:00:28.551Z,12.43
2022-11-20T18:02:57.086Z,12.07
2022-11-20T18:05:33.932Z,12.75
2022-11-20T18:08:01.662Z,13.20
2022-11-20T18:10:30.719Z,12.00
2022-11-20T18:12:58.070Z,11.27
2022-11-20T18:15:27.823Z,12.65
2022-11-20T18:17:55.036Z,12.38
2022-11-20T18:20:35.190Z,10.43
2022-11-20T18:23:05.074Z,10.73
2022-11-20T18:25:32.884Z,11.43
2022-11-20T18:28:01.183Z,12.80
2022-11-20T18:30:28.983Z,12.25
2022-11-20T18:32:56.261Z,12.85
2022-11-20T18:35:23.869Z,12.43
2022-11-20T18:37:54.727Z,10.20
2022-11-20T18:40:22.952Z,10.70
2022-11-20T18:43:18.036Z,10.10
2022-11-20T18:45:46.284Z,11.82
2022-11-20T18:48:14.299Z,12.20
2022-11-20T18:50:42.324Z,9.15
2022-11-20T18:53:12.744Z,12.15
2022-11-20T18:55:41.112Z,11.52
2022-11-20T18:58:09.997Z,13.00
2022-11-20T19:00:42.490Z,12.00
2022-11-20T19:03:10.762Z,10.05
2022-11-20T19:05:38.901Z,11.95
2022-11-20T19:08:06.795Z,13.93
2022-11-20T19:10:34.773Z,13.65
2022-11-20T19:13:01.974Z,14.63
2022-11-20T19:15:29.714Z,14.90
2022-11-20T19:17:58.353Z,15.82
2022-11-20T19:20:27.613Z,14.50
2022-11-20T19:22:58.530Z,14.65
2022-11-20T19:25:26.732Z,15.32
2022-11-20T19:27:54.182Z,9.80
2022-11-20T19:30:26.597Z,13.45
2022-11-20T19:32:54.356Z,12.50
2022-11-20T19:35:21.575Z,10.90
2022-11-20T19:37:49.657Z,14.10
2022-11-20T19:40:25.534Z,13.43
2022-11-20T19:42:53.107Z,13.98
2022-11-20T19:45:20.445Z,14.32
2022-11-20T19:50:35.113Z,10.40
2022-11-20T19:53:10.822Z,12.85
2022-11-20T19:55:38.589Z,13.45
2022-11-20T19:58:11.763Z,15.07
2022-11-20T20:00:41.475Z,13.65
2022-11-20T20:03:09.188Z,12.65
2022-11-20T20:05:37.000Z,12.95
2022-11-20T20:08:04.015Z,13.25
2022-11-20T20:10:31.088Z,12.18
2022-11-20T20:12:58.247Z,10.80
2022-11-20T20:15:25.864Z,13.98
2022-11-20T20:17:53.435Z,14.73
2022-11-20T20:20:21.584Z,11.40
2022-11-20T20:22:48.739Z,11.65
2022-11-20T20:25:15.998Z,13.23
2022-11-20T20:27:43.749Z,11.57
2022-11-20T20:30:12.283Z,11.60
2022-11-20T20:32:39.375Z,9.20
2022-11-20T20:35:06.877Z,12.93
2022-11-20T20:37:33.955Z,12.15
2022-11-20T20:40:01.296Z,11.68
2022-11-20T20:42:33.971Z,12.23
2022-11-20T20:45:07.099Z,11.45
2022-11-20T20:47:36.539Z,11.35
2022-11-20T20:50:05.613Z,12.38
2022-11-20T20:52:33.108Z,14.35
2022-11-20T20:55:01.027Z,13.68
2022-11-20T20:57:28.937Z,13.20
2022-11-20T20:59:57.068Z,13.30
2022-11-20T21:02:26.185Z,14.05
2022-11-20T21:04:53.566Z,12.38
2022-11-20T21:07:20.920Z,12.05
2022-11-20T21:09:48.620Z,10.55
2022-11-20T21:12:15.690Z,14.60
2022-11-20T21:14:43.157Z,12.85
2022-11-20T21:17:15.105Z,12.90
2022-11-20T21:19:42.678Z,13.68
2022-11-20T21:22:09.868Z,13.20
2022-11-20T21:24:37.240Z,13.02
2022-11-20T21:27:07.543Z,13.45
2022-11-20T21:29:34.775Z,11.65
2022-11-20T21:32:02.143Z,12.27
2022-11-20T21:34:29.552Z,12.32
2022-11-20T21:36:56.997Z,11.82
2022-11-20T21:39:24.104Z,11.27
2022-11-20T21:41:51.548Z,11.90
2022-11-20T21:44:33.816Z,11.13
2022-11-20T21:47:00.867Z,10.50
2022-11-20T21:49:28.261Z,10.65
2022-11-20T21:51:55.368Z,10.57
2022-11-20T21:54:22.788Z,11.23
2022-11-20T21:56:50.070Z,11.88
2022-11-20T21:59:17.232Z,10.60
2022-11-20T22:01:44.445Z,10.55
2022-11-20T22:04:16.390Z,9.85
2022-11-20T22:06:43.490Z,9.55
2022-11-20T22:09:11.425Z,10.05
2022-11-20T22:11:38.742Z,10.65
2022-11-20T22:14:21.099Z,10.15
2022-11-20T22:16:50.228Z,10.27
2022-11-20T22:19:18.251Z,10.65
2022-11-20T22:21:45.516Z,9.95
2022-11-20T22:24:16.051Z,10.48
2022-11-20T22:26:44.625Z,10.60
2022-11-20T22:29:21.291Z,9.98
2022-11-20T22:31:48.596Z,11.00
2022-11-20T22:34:15.739Z,10.55
2022-11-20T22:36:42.850Z,10.57
2022-11-20T22:39:10.527Z,9.88
2022-11-20T22:41:37.366Z,10.63
2022-11-20T22:44:08.247Z,10.93
2022-11-20T22:46:37.241Z,11.13
2022-11-20T22:49:07.158Z,10.70
2022-11-20T22:51:36.861Z,11.50
2022-11-20T22:54:04.199Z,10.13
2022-11-20T22:56:31.925Z,11.10
2022-11-20T22:58:58.896Z,4.63
2022-11-20T23:01:28.065Z,11.13
2022-11-20T23:03:57.278Z,9.85
2022-11-20T23:06:25.165Z,10.15
2022-11-20T23:08:52.817Z,9.07
2022-11-20T23:11:28.200Z,9.85
2022-11-20T23:13:58.379Z,10.52
2022-11-20T23:16:27.655Z,9.73
2022-11-20T23:19:00.358Z,11.63
2022-11-20T23:21:27.758Z,10.73
2022-11-20T23:23:56.213Z,10.50
2022-11-20T23:26:26.186Z,10.95
2022-11-20T23:28:55.288Z,10.15
2022-11-20T23:31:22.306Z,10.35
2022-11-20T23:33:49.581Z,9.88
2022-11-20T23:36:16.547Z,8.68
2022-11-20T23:38:43.482Z,10.88
2022-11-20T23:41:11.432Z,11.32
2022-11-20T23:43:38.395Z,10.48
2022-11-20T23:46:06.444Z,11.60
2022-11-20T23:48:36.065Z,11.25
2022-11-20T23:51:04.942Z,9.52
2022-11-20T23:53:32.689Z,11.95
2022-11-20T23:56:02.304Z,10.93
2022-11-20T23:58:36.071Z,7.55
